createdAt,value
2023-08-15T00:02:27.596Z,4.60
2023-08-15T00:05:32.448Z,4.78
2023-08-15T00:08:35.343Z,4.80
2023-08-15T00:11:38.225Z,4.40
2023-08-15T00:14:41.127Z,4.78
2023-08-15T00:17:44.226Z,5.10
2023-08-15T00:20:49.986Z,5.00
2023-08-15T00:23:52.861Z,4.80
2023-08-15T00:26:55.768Z,4.95
2023-08-15T00:29:58.647Z,5.15
2023-08-15T00:33:01.624Z,5.10
2023-08-15T00:36:07.583Z,5.13
2023-08-15T00:39:10.514Z,5.55
2023-08-15T00:42:13.467Z,5.80
2023-08-15T00:45:16.399Z,5.32
2023-08-15T00:48:19.453Z,5.25
2023-08-15T00:51:23.863Z,5.53
2023-08-15T00:54:26.810Z,5.30
2023-08-15T00:57:29.790Z,5.40
2023-08-15T01:00:32.984Z,5.68
2023-08-15T01:03:37.467Z,5.40
2023-08-15T01:06:41.834Z,5.60
2023-08-15T01:09:44.734Z,5.63
2023-08-15T01:12:53.983Z,5.97
2023-08-15T01:15:56.915Z,6.20
2023-08-15T01:19:03.006Z,6.10
2023-08-15T01:22:15.567Z,5.65
2023-08-15T01:25:20.102Z,5.90
2023-08-15T01:28:23.444Z,5.80
2023-08-15T01:31:31.273Z,5.75
2023-08-15T01:34:36.527Z,5.97
2023-08-15T01:37:41.313Z,6.15
2023-08-15T01:40:47.189Z,5.50
2023-08-15T01:43:50.406Z,5.50
2023-08-15T01:46:53.406Z,5.60
2023-08-15T01:49:56.228Z,5.43
2023-08-15T01:52:59.119Z,5.78
2023-08-15T01:56:03.418Z,5.63
2023-08-15T01:59:06.329Z,5.88
2023-08-15T02:02:09.174Z,5.30
2023-08-15T02:05:12.185Z,5.70
2023-08-15T02:08:15.104Z,5.30
2023-08-15T02:11:19.413Z,5.75
2023-08-15T02:14:22.486Z,6.35
2023-08-15T02:17:25.549Z,5.38
2023-08-15T02:20:28.456Z,6.07
2023-08-15T02:23:31.352Z,5.80
2023-08-15T02:26:36.988Z,5.70
2023-08-15T02:29:39.917Z,6.10
2023-08-15T02:32:42.837Z,6.00
2023-08-15T02:35:45.847Z,5.80
2023-08-15T02:38:48.710Z,5.90
2023-08-15T02:41:52.967Z,6.53
2023-08-15T02:44:56.254Z,6.35
2023-08-15T02:47:59.384Z,5.78
2023-08-15T02:51:04.679Z,6.47
2023-08-15T02:54:08.976Z,6.65
2023-08-15T02:57:13.257Z,6.28
2023-08-15T03:00:16.798Z,6.30
2023-08-15T03:03:19.683Z,6.03
2023-08-15T03:06:22.602Z,6.10
2023-08-15T03:09:25.518Z,6.15
2023-08-15T03:12:30.407Z,5.70
2023-08-15T03:15:33.397Z,6.43
2023-08-15T03:18:36.492Z,6.22
2023-08-15T03:21:39.465Z,6.57
2023-08-15T03:24:43.216Z,7.20
2023-08-15T03:27:47.693Z,7.07
2023-08-15T03:30:50.740Z,7.18
2023-08-15T03:33:53.662Z,7.32
2023-08-15T03:36:56.684Z,7.32
2023-08-15T03:39:59.608Z,7.28
2023-08-15T03:43:04.878Z,7.55
2023-08-15T03:46:09.224Z,7.85
2023-08-15T03:49:12.214Z,7.95
2023-08-15T03:52:15.202Z,7.55
2023-08-15T03:55:18.107Z,7.88
2023-08-15T03:58:24.114Z,8.02
2023-08-15T04:01:26.986Z,7.90
2023-08-15T04:04:29.865Z,8.02
2023-08-15T04:07:32.813Z,8.25
2023-08-15T04:10:40.832Z,7.60
2023-08-15T04:13:45.294Z,8.18
2023-08-15T04:16:49.232Z,8.40
2023-08-15T04:19:54.702Z,7.80
2023-08-15T04:22:57.619Z,8.30
2023-08-15T04:26:00.607Z,8.30
2023-08-15T04:29:05.284Z,7.82
2023-08-15T04:32:08.362Z,7.70
2023-08-15T04:35:11.217Z,8.48
2023-08-15T04:38:15.653Z,7.75
2023-08-15T04:41:18.700Z,8.10
2023-08-15T04:44:23.101Z,8.57
2023-08-15T04:47:25.928Z,9.90
2023-08-15T04:50:29.152Z,9.05
2023-08-15T04:53:32.286Z,8.55
2023-08-15T04:56:40.217Z,8.32
2023-08-15T04:59:44.842Z,8.45
2023-08-15T05:02:51.160Z,7.90
2023-08-15T05:05:54.517Z,7.85
2023-08-15T05:08:57.692Z,7.70
2023-08-15T05:12:00.799Z,7.38
2023-08-15T05:15:09.348Z,7.13
2023-08-15T05:18:16.948Z,7.70
2023-08-15T05:21:20.117Z,7.20
2023-08-15T05:24:26.408Z,7.55
2023-08-15T05:27:30.412Z,8.45
2023-08-15T05:30:34.906Z,7.35
2023-08-15T05:33:37.838Z,6.80
2023-08-15T05:36:43.587Z,7.18
2023-08-15T05:39:46.656Z,6.78
2023-08-15T05:42:49.725Z,7.07
2023-08-15T05:45:54.146Z,7.13
2023-08-15T05:48:57.160Z,7.82
2023-08-15T05:52:01.516Z,7.60
2023-08-15T05:55:04.651Z,7.80
2023-08-15T05:58:09.572Z,8.50
2023-08-15T06:01:14.331Z,8.10
2023-08-15T06:04:17.521Z,8.18
2023-08-15T06:07:20.835Z,7.82
2023-08-15T06:10:24.055Z,8.45
2023-08-15T06:13:32.417Z,8.00
2023-08-15T06:16:36.905Z,7.65
2023-08-15T06:19:42.011Z,7.45
2023-08-15T06:22:45.109Z,7.15
2023-08-15T06:25:49.940Z,7.28
2023-08-15T06:28:52.985Z,6.53
2023-08-15T06:32:00.382Z,6.82
2023-08-15T06:35:07.116Z,6.95
2023-08-15T06:38:12.891Z,6.75
2023-08-15T06:41:18.696Z,6.38
2023-08-15T06:44:22.421Z,6.70
2023-08-15T06:47:26.767Z,5.88
2023-08-15T06:50:29.708Z,5.90
2023-08-15T06:53:32.867Z,6.38
2023-08-15T06:56:36.252Z,6.47
2023-08-15T06:59:42.815Z,5.88
2023-08-15T07:02:50.374Z,5.90
2023-08-15T07:05:56.211Z,5.93
2023-08-15T07:09:03.008Z,5.40
2023-08-15T07:12:06.892Z,5.85
2023-08-15T07:15:10.678Z,5.03
2023-08-15T07:18:16.993Z,5.32
2023-08-15T07:21:23.946Z,5.25
2023-08-15T07:24:27.369Z,5.30
2023-08-15T07:27:38.742Z,5.40
2023-08-15T07:30:45.923Z,5.40
2023-08-15T07:33:50.835Z,5.18
2023-08-15T07:36:54.160Z,5.15
2023-08-15T07:40:02.086Z,5.10
2023-08-15T07:43:05.467Z,4.78
2023-08-15T07:46:08.668Z,4.97
2023-08-15T07:49:14.310Z,4.90
2023-08-15T07:52:17.759Z,4.93
2023-08-15T07:55:20.856Z,5.07
2023-08-15T07:58:24.741Z,4.82
2023-08-15T08:01:30.887Z,4.93
2023-08-15T08:04:44.381Z,4.65
2023-08-15T08:07:51.497Z,4.57
2023-08-15T08:10:54.807Z,4.78
2023-08-15T08:13:57.850Z,4.70
2023-08-15T08:17:03.871Z,4.47
2023-08-15T08:20:13.479Z,4.82
2023-08-15T08:23:18.236Z,4.22
2023-08-15T08:26:21.252Z,4.32
2023-08-15T08:29:24.311Z,4.70
2023-08-15T08:32:29.719Z,4.03
2023-08-15T08:35:37.256Z,4.20
2023-08-15T08:38:40.270Z,4.38
2023-08-15T08:41:43.674Z,4.50
2023-08-15T08:44:48.065Z,4.20
2023-08-15T08:47:51.086Z,4.20
2023-08-15T08:50:57.212Z,4.32
2023-08-15T08:54:00.445Z,3.90
2023-08-15T08:57:05.479Z,4.15
2023-08-15T09:00:12.774Z,4.03
2023-08-15T09:03:16.783Z,4.07
2023-08-15T09:06:21.914Z,4.03
2023-08-15T09:09:24.957Z,3.92
2023-08-15T09:12:35.880Z,3.90
2023-08-15T09:15:39.123Z,3.88
2023-08-15T09:18:42.367Z,4.43
2023-08-15T09:21:46.966Z,3.72
2023-08-15T09:24:50.103Z,3.90
2023-08-15T09:27:55.272Z,4.10
2023-08-15T09:31:05.326Z,4.00
2023-08-15T09:34:11.716Z,4.00
2023-08-15T09:37:16.399Z,3.88
2023-08-15T09:40:23.831Z,3.83
2023-08-15T09:43:26.888Z,3.95
2023-08-15T09:46:34.210Z,3.75
2023-08-15T09:49:37.191Z,4.10
2023-08-15T09:52:44.409Z,3.83
2023-08-15T09:55:49.438Z,3.92
2023-08-15T09:58:55.324Z,3.80
2023-08-15T10:02:00.598Z,3.97
2023-08-15T10:05:07.663Z,3.92
2023-08-15T10:08:17.494Z,3.83
2023-08-15T10:11:21.113Z,3.90
2023-08-15T10:14:24.844Z,4.05
2023-08-15T10:17:30.664Z,4.18
2023-08-15T10:20:37.670Z,3.58
2023-08-15T10:23:44.760Z,3.95
2023-08-15T10:26:50.421Z,4.28
2023-08-15T10:29:59.266Z,4.18
2023-08-15T10:33:05.330Z,3.90
2023-08-15T10:36:09.760Z,3.78
2023-08-15T10:39:19.542Z,3.97
2023-08-15T10:42:22.597Z,4.18
2023-08-15T10:45:26.054Z,4.32
2023-08-15T10:48:47.103Z,4.05
2023-08-15T10:52:00.556Z,4.38
2023-08-15T10:55:05.089Z,4.30
2023-08-15T10:58:09.657Z,3.95
2023-08-15T11:01:13.744Z,4.10
2023-08-15T11:04:21.135Z,4.10
2023-08-15T11:07:28.605Z,4.18
2023-08-15T11:10:33.002Z,4.20
2023-08-15T11:13:38.606Z,3.60
2023-08-15T11:16:41.631Z,3.80
2023-08-15T11:19:45.954Z,3.90
2023-08-15T11:22:57.269Z,4.25
2023-08-15T11:26:06.892Z,4.13
2023-08-15T11:29:11.718Z,4.00
2023-08-15T11:32:14.820Z,3.90
2023-08-15T11:35:18.685Z,4.13
2023-08-15T11:38:22.094Z,3.90
2023-08-15T11:41:26.711Z,4.13
2023-08-15T11:44:29.597Z,4.53
2023-08-15T11:47:33.461Z,4.60
2023-08-15T11:50:44.355Z,4.72
2023-08-15T11:53:51.260Z,4.40
2023-08-15T11:56:56.236Z,4.07
2023-08-15T11:59:59.112Z,4.70
2023-08-15T12:03:02.016Z,4.13
2023-08-15T12:06:08.243Z,4.10
2023-08-15T12:09:11.170Z,4.20
2023-08-15T12:12:21.086Z,4.10
2023-08-15T12:15:24.357Z,3.75
2023-08-15T12:18:27.181Z,3.75
2023-08-15T12:21:30.067Z,4.05
2023-08-15T12:24:32.921Z,3.78
2023-08-15T12:27:37.308Z,4.43
2023-08-15T12:30:40.184Z,4.00
2023-08-15T12:33:47.307Z,4.35
2023-08-15T12:36:51.100Z,4.30
2023-08-15T12:39:54.163Z,3.78
2023-08-15T12:42:58.506Z,4.18
2023-08-15T12:46:04.053Z,3.88
2023-08-15T12:49:06.988Z,3.90
2023-08-15T12:52:10.005Z,4.10
2023-08-15T12:55:15.935Z,4.40
2023-08-15T12:58:20.218Z,4.43
2023-08-15T13:01:24.179Z,3.60
2023-08-15T13:04:29.315Z,4.15
2023-08-15T13:07:32.303Z,3.92
2023-08-15T13:10:35.268Z,3.92
2023-08-15T13:13:40.218Z,3.85
2023-08-15T13:16:43.260Z,3.92
2023-08-15T13:19:46.199Z,3.95
2023-08-15T13:22:49.164Z,4.20
2023-08-15T13:25:52.092Z,3.83
2023-08-15T13:29:00.578Z,3.90
2023-08-15T13:32:03.762Z,3.80
2023-08-15T13:35:11.205Z,4.07
2023-08-15T13:38:16.313Z,3.70
2023-08-15T13:41:22.247Z,3.65
2023-08-15T13:44:29.606Z,3.70
2023-08-15T13:47:32.694Z,4.10
2023-08-15T13:50:35.977Z,3.60
2023-08-15T13:53:39.015Z,3.63
2023-08-15T13:56:42.295Z,3.80
2023-08-15T13:59:48.304Z,3.70
2023-08-15T14:02:52.547Z,3.92
2023-08-15T14:05:56.020Z,3.90
2023-08-15T14:08:59.222Z,4.15
2023-08-15T14:12:02.253Z,4.00
2023-08-15T14:15:09.694Z,3.65
2023-08-15T14:18:13.713Z,3.90
2023-08-15T14:21:17.313Z,3.92
2023-08-15T14:24:21.624Z,3.50
2023-08-15T14:27:25.316Z,3.67
2023-08-15T14:30:29.748Z,3.72
2023-08-15T14:33:34.941Z,3.63
2023-08-15T14:36:40.768Z,3.90
2023-08-15T14:39:47.535Z,3.80
2023-08-15T14:42:51.399Z,3.70
2023-08-15T14:45:58.949Z,3.60
2023-08-15T14:49:05.425Z,3.15
2023-08-15T14:52:12.511Z,3.20
2023-08-15T14:55:20.577Z,3.38
2023-08-15T14:58:23.605Z,3.30
2023-08-15T15:01:28.460Z,3.28
2023-08-15T15:04:31.506Z,3.28
2023-08-15T15:07:34.807Z,3.03
2023-08-15T15:10:37.877Z,3.70
2023-08-15T15:13:45.219Z,3.30
2023-08-15T15:16:54.391Z,3.10
2023-08-15T15:19:57.573Z,3.45
2023-08-15T15:23:00.636Z,3.00
2023-08-15T15:26:05.248Z,3.20
2023-08-15T15:29:11.121Z,3.17
2023-08-15T15:32:17.750Z,3.28
2023-08-15T15:35:23.018Z,3.50
2023-08-15T15:38:26.296Z,3.28
2023-08-15T15:41:29.240Z,3.38
2023-08-15T15:44:35.436Z,3.17
2023-08-15T15:47:40.140Z,2.97
2023-08-15T15:50:43.149Z,3.20
2023-08-15T15:53:46.188Z,3.15
2023-08-15T15:56:49.410Z,3.25
2023-08-15T15:59:52.476Z,3.33
2023-08-15T16:03:00.620Z,3.22
2023-08-15T16:06:03.751Z,3.05
2023-08-15T16:09:07.669Z,3.40
2023-08-15T16:12:10.868Z,3.20
2023-08-15T16:15:13.936Z,3.45
2023-08-15T16:18:18.403Z,3.45
2023-08-15T16:21:27.352Z,3.05
2023-08-15T16:24:30.975Z,3.30
2023-08-15T16:27:33.916Z,3.10
2023-08-15T16:30:36.913Z,3.08
2023-08-15T16:33:41.247Z,3.20
2023-08-15T16:36:44.186Z,3.30
2023-08-15T16:39:50.038Z,3.60
2023-08-15T16:42:57.291Z,3.30
2023-08-15T16:46:00.180Z,3.33
2023-08-15T16:49:07.568Z,3.30
2023-08-15T16:52:10.943Z,3.20
2023-08-15T16:55:14.408Z,3.67
2023-08-15T16:58:17.359Z,3.58
2023-08-15T17:01:23.311Z,3.65
2023-08-15T17:04:28.262Z,3.75
2023-08-15T17:07:34.828Z,3.63
2023-08-15T17:10:38.961Z,3.38
2023-08-15T17:13:47.329Z,3.33
2023-08-15T17:16:50.347Z,3.45
2023-08-15T17:19:56.598Z,3.72
2023-08-15T17:22:59.975Z,3.28
2023-08-15T17:26:02.984Z,3.55
2023-08-15T17:29:07.317Z,3.42
2023-08-15T17:32:11.370Z,3.50
2023-08-15T17:35:18.737Z,3.40
2023-08-15T17:38:24.267Z,3.20
2023-08-15T17:41:28.253Z,3.50
2023-08-15T17:44:31.782Z,3.60
2023-08-15T17:47:36.169Z,3.70
2023-08-15T17:50:41.837Z,3.50
2023-08-15T17:53:46.290Z,3.50
2023-08-15T17:56:49.749Z,3.60
2023-08-15T17:59:53.439Z,3.63
2023-08-15T18:02:57.455Z,3.22
2023-08-15T18:06:03.352Z,3.70
2023-08-15T18:09:06.950Z,3.75
2023-08-15T18:12:11.704Z,4.00
2023-08-15T18:15:17.431Z,3.80
2023-08-15T18:18:21.973Z,4.40
2023-08-15T18:21:26.698Z,3.88
2023-08-15T18:24:29.625Z,4.00
2023-08-15T18:27:33.553Z,3.83
2023-08-15T18:30:37.404Z,3.92
2023-08-15T18:33:41.571Z,4.10
2023-08-15T18:36:47.154Z,3.88
2023-08-15T18:39:51.746Z,3.90
2023-08-15T18:42:54.856Z,3.88
2023-08-15T18:45:58.969Z,3.42
2023-08-15T18:49:02.651Z,3.78
2023-08-15T18:52:09.226Z,3.85
2023-08-15T18:55:13.539Z,4.20
2023-08-15T18:58:18.174Z,3.80
2023-08-15T19:01:21.576Z,4.38
2023-08-15T19:04:25.770Z,4.03
2023-08-15T19:07:33.853Z,4.10
2023-08-15T19:10:38.208Z,3.85
2023-08-15T19:13:42.789Z,4.15
2023-08-15T19:16:46.671Z,4.22
2023-08-15T19:19:53.722Z,4.10
2023-08-15T19:22:59.462Z,6.28
2023-08-15T19:26:03.872Z,6.10
2023-08-15T19:29:07.840Z,4.10
2023-08-15T19:32:11.953Z,4.38
2023-08-15T19:35:15.690Z,4.68
2023-08-15T19:38:21.460Z,4.85
2023-08-15T19:41:25.314Z,4.65
2023-08-15T19:44:31.104Z,4.35
2023-08-15T19:47:35.296Z,4.40
2023-08-15T19:50:39.280Z,4.53
2023-08-15T19:53:43.636Z,4.55
2023-08-15T19:56:47.509Z,4.78
2023-08-15T19:59:51.961Z,4.65
2023-08-15T20:02:56.563Z,4.93
2023-08-15T20:06:00.716Z,5.25
2023-08-15T20:09:06.491Z,5.00
2023-08-15T20:12:10.651Z,4.80
2023-08-15T20:15:13.712Z,5.53
2023-08-15T20:18:17.713Z,5.60
2023-08-15T20:21:22.020Z,5.20
2023-08-15T20:24:27.166Z,4.85
2023-08-15T20:27:30.519Z,5.15
2023-08-15T20:30:34.063Z,4.90
2023-08-15T20:33:37.553Z,5.35
2023-08-15T20:36:40.832Z,5.13
2023-08-15T20:39:45.041Z,5.35
2023-08-15T20:42:48.239Z,4.65
2023-08-15T20:45:52.929Z,5.18
2023-08-15T20:48:55.809Z,4.80
2023-08-15T20:51:58.972Z,5.45
2023-08-15T20:55:04.250Z,5.25
2023-08-15T20:58:07.516Z,5.07
2023-08-15T21:01:10.487Z,5.10
2023-08-15T21:04:13.391Z,4.88
2023-08-15T21:07:16.313Z,5.32
2023-08-15T21:10:20.671Z,5.10
2023-08-15T21:13:23.628Z,5.03
2023-08-15T21:16:27.032Z,5.05
2023-08-15T21:19:29.895Z,5.00
2023-08-15T21:22:34.005Z,4.95
2023-08-15T21:25:38.301Z,5.43
2023-08-15T21:28:41.410Z,5.15
2023-08-15T21:31:44.733Z,5.40
2023-08-15T21:34:47.625Z,5.18
2023-08-15T21:37:50.530Z,5.13
2023-08-15T21:40:54.920Z,5.22
2023-08-15T21:43:57.730Z,5.93
2023-08-15T21:47:00.545Z,5.43
2023-08-15T21:50:04.381Z,5.40
2023-08-15T21:53:07.315Z,5.30
2023-08-15T21:56:11.578Z,5.30
2023-08-15T21:59:14.533Z,6.15
2023-08-15T22:02:17.937Z,5.38
2023-08-15T22:05:20.996Z,5.63
2023-08-15T22:08:23.954Z,5.63
2023-08-15T22:11:28.274Z,5.13
2023-08-15T22:14:31.093Z,5.47
2023-08-15T22:17:45.147Z,5.57
2023-08-15T22:20:49.605Z,5.72
2023-08-15T22:23:52.522Z,5.68
2023-08-15T22:26:57.018Z,5.85
2023-08-15T22:29:59.879Z,5.68
2023-08-15T22:33:02.870Z,5.78
2023-08-15T22:36:06.393Z,5.70
2023-08-15T22:39:09.261Z,5.13
2023-08-15T22:42:13.882Z,5.20
2023-08-15T22:45:16.915Z,5.50
2023-08-15T22:48:19.816Z,4.93
2023-08-15T22:51:22.787Z,4.95
2023-08-15T22:54:25.724Z,5.15
2023-08-15T22:57:30.022Z,4.68
2023-08-15T23:00:32.964Z,4.47
2023-08-15T23:03:36.116Z,4.30
2023-08-15T23:06:39.113Z,4.20
2023-08-15T23:09:42.016Z,4.05
2023-08-15T23:12:49.083Z,4.05
2023-08-15T23:15:52.274Z,4.00
2023-08-15T23:18:55.304Z,3.60
2023-08-15T23:21:58.232Z,3.63
2023-08-15T23:25:03.801Z,3.65
2023-08-15T23:28:08.629Z,3.45
2023-08-15T23:31:12.483Z,3.30
2023-08-15T23:34:15.615Z,3.42
2023-08-15T23:37:18.530Z,3.13
2023-08-15T23:40:21.631Z,3.10
2023-08-15T23:43:25.837Z,3.00
2023-08-15T23:46:28.763Z,2.90
2023-08-15T23:49:31.767Z,3.25
2023-08-15T23:52:34.918Z,2.70
2023-08-15T23:55:37.821Z,2.60
2023-08-15T23:58:42.840Z,2.83
